Time;durP1;ratioP1;P1;durP2;ratioP2;P2;SDS_P1;SDS_P2;PMS_P1;PMS_P2;Temp;Humidity;BMP_temperature;BMP_pressure;BME280_temperature;BME280_humidity;BME280_pressure;Samples;Min_cycle;Max_cycle;Signal;HPM_P1;HPM_P2
2021/12/01 00:01:07;;;;;;;0.20;0.20;;;11.70;64.80;;;;;;6114910;23;20335;-53
2021/12/01 00:03:34;;;;;;;0.52;0.28;;;11.70;64.90;;;;;;6115269;23;20002;-55
2021/12/01 00:06:02;;;;;;;1.70;0.28;;;11.70;64.90;;;;;;6113387;23;20021;-55
2021/12/01 00:08:29;;;;;;;0.73;0.20;;;11.70;64.90;;;;;;6114895;23;20335;-53
2021/12/01 00:10:55;;;;;;;3.67;0.30;;;11.70;65.00;;;;;;6115787;23;20017;-55
2021/12/01 00:13:22;;;;;;;3.63;0.43;;;11.70;64.90;;;;;;6114581;23;20009;-54
2021/12/01 00:15:51;;;;;;;0.40;0.20;;;11.70;64.90;;;;;;6116112;23;20336;-51
2021/12/01 00:18:17;;;;;;;1.35;0.30;;;11.70;64.90;;;;;;6114739;23;20028;-53
2021/12/01 00:20:45;;;;;;;0.20;0.20;;;11.70;64.80;;;;;;6125390;23;20033;-54
2021/12/01 00:23:12;;;;;;;0.10;0.10;;;11.70;64.80;;;;;;6114207;23;19998;-51
2021/12/01 00:25:42;;;;;;;1.00;0.30;;;11.70;64.80;;;;;;6114172;23;20006;-54
2021/12/01 00:28:09;;;;;;;0.57;0.40;;;11.70;64.80;;;;;;6114162;23;20002;-54
2021/12/01 00:30:36;;;;;;;0.88;0.20;;;11.70;64.90;;;;;;6114957;23;19998;-54
2021/12/01 00:33:03;;;;;;;0.77;0.40;;;11.70;64.80;;;;;;6114257;23;20006;-54
2021/12/01 00:35:30;;;;;;;1.27;0.32;;;11.70;64.80;;;;;;6115409;23;20009;-55
2021/12/01 00:37:56;;;;;;;0.30;0.30;;;11.70;64.80;;;;;;6114417;23;20009;-54
2021/12/01 00:40:25;;;;;;;1.27;0.57;;;11.70;64.80;;;;;;6115134;23;20006;-54
2021/12/01 00:42:51;;;;;;;0.30;0.30;;;11.70;64.80;;;;;;6114554;23;20431;-54
2021/12/01 00:45:19;;;;;;;1.27;0.30;;;11.70;64.80;;;;;;6114937;23;20002;-56
2021/12/01 00:47:49;;;;;;;0.52;0.30;;;11.70;64.80;;;;;;6113974;23;20005;-54
2021/12/01 00:50:26;;;;;;;1.50;0.38;;;11.70;64.70;;;;;;6115454;23;20005;-52
2021/12/01 00:52:54;;;;;;;2.05;0.40;;;11.70;64.60;;;;;;6111894;23;20331;-54
2021/12/01 00:55:20;;;;;;;4.80;0.35;;;11.70;64.60;;;;;;6115079;23;20010;-52
2021/12/01 00:57:47;;;;;;;0.93;0.43;;;11.70;64.70;;;;;;6115602;23;20044;-54
2021/12/01 01:00:14;;;;;;;0.60;0.50;;;11.70;64.70;;;;;;6114563;23;20009;-55
2021/12/01 01:02:40;;;;;;;0.52;0.30;;;11.70;64.50;;;;;;6113889;23;20013;-54
2021/12/01 01:05:08;;;;;;;0.30;0.30;;;11.70;64.60;;;;;;6115413;23;20324;-57
2021/12/01 01:07:34;;;;;;;0.65;0.32;;;11.70;64.50;;;;;;6111001;23;20002;-55
2021/12/01 01:10:15;;;;;;;3.30;0.45;;;11.70;65.20;;;;;;6115318;23;20013;-54
2021/12/01 01:18:11;;;;;;;0.30;0.30;;;11.80;64.40;;;;;;6117064;23;20033;-53
2021/12/01 01:20:37;;;;;;;0.88;0.38;;;11.70;64.30;;;;;;6115187;23;20002;-54
2021/12/01 01:23:03;;;;;;;0.55;0.35;;;11.70;64.20;;;;;;6114230;23;20235;-55
2021/12/01 01:25:30;;;;;;;2.03;0.30;;;11.70;64.30;;;;;;6114784;23;20002;-55
2021/12/01 01:27:56;;;;;;;0.90;0.40;;;11.70;64.20;;;;;;6113680;23;20466;-54
2021/12/01 01:30:23;;;;;;;0.93;0.47;;;11.70;64.20;;;;;;6115212;23;20017;-56
2021/12/01 01:32:49;;;;;;;0.50;0.32;;;11.70;64.10;;;;;;6114890;23;20291;-53
2021/12/01 01:35:16;;;;;;;0.75;0.30;;;11.70;64.10;;;;;;6114874;23;20017;-53
2021/12/01 01:37:42;;;;;;;0.40;0.20;;;11.70;64.10;;;;;;6114043;23;20015;-57
2021/12/01 01:40:09;;;;;;;1.40;0.25;;;11.70;64.00;;;;;;6115231;23;20006;-55
2021/12/01 01:42:35;;;;;;;0.45;0.20;;;11.80;64.10;;;;;;6113132;23;20010;-55
2021/12/01 01:45:03;;;;;;;1.88;0.30;;;11.80;64.10;;;;;;6087805;23;20013;-54
2021/12/01 01:47:29;;;;;;;0.70;0.30;;;11.70;63.90;;;;;;6113507;23;20010;-51
2021/12/01 01:50:00;;;;;;;0.20;0.20;;;11.80;64.10;;;;;;6115122;23;20005;-53
2021/12/01 01:52:27;;;;;;;0.30;0.30;;;11.80;64.20;;;;;;6114371;23;20002;-52
2021/12/01 01:54:54;;;;;;;0.30;0.30;;;11.80;64.30;;;;;;6114006;23;20010;-53
2021/12/01 01:57:21;;;;;;;1.63;0.30;;;11.80;64.40;;;;;;6114426;23;20280;-50
2021/12/01 01:59:47;;;;;;;1.17;0.30;;;11.80;64.40;;;;;;6114908;23;20002;-52
2021/12/01 02:02:14;;;;;;;1.60;0.30;;;11.80;64.40;;;;;;6112606;23;20005;-54
2021/12/01 02:04:40;;;;;;;0.50;0.50;;;11.80;64.20;;;;;;6114862;23;20005;-54
2021/12/01 02:07:06;;;;;;;0.40;0.30;;;11.80;63.90;;;;;;6113724;23;20315;-54
2021/12/01 02:09:33;;;;;;;0.85;0.40;;;11.80;63.70;;;;;;6114477;23;20025;-54
2021/12/01 02:12:01;;;;;;;2.30;0.45;;;11.80;63.50;;;;;;6137036;23;20002;-55
2021/12/01 02:14:28;;;;;;;0.68;0.40;;;11.80;63.30;;;;;;6115030;23;20009;-54
2021/12/01 02:16:56;;;;;;;0.80;0.70;;;11.80;63.00;;;;;;6116205;23;20013;-54
2021/12/01 02:19:23;;;;;;;0.50;0.50;;;11.70;62.80;;;;;;6116320;23;20021;-56
2021/12/01 02:21:50;;;;;;;1.17;0.70;;;11.70;62.70;;;;;;6115620;23;20013;-53
2021/12/01 02:24:19;;;;;;;1.15;0.60;;;11.70;62.60;;;;;;6116386;23;20323;-54
2021/12/01 02:26:49;;;;;;;2.13;0.75;;;11.70;62.50;;;;;;6116666;23;20012;-56
2021/12/01 02:29:19;;;;;;;1.15;0.70;;;11.70;62.40;;;;;;6115631;23;20339;-56
2021/12/01 02:31:46;;;;;;;0.73;0.60;;;11.70;62.20;;;;;;6116188;23;20029;-57
2021/12/01 02:34:18;;;;;;;0.90;0.80;;;11.70;61.90;;;;;;6115317;23;20002;-58
2021/12/01 02:36:53;;;;;;;0.90;0.63;;;11.60;62.00;;;;;;6125175;23;20002;-58
2021/12/01 02:39:20;;;;;;;1.00;0.60;;;11.60;61.80;;;;;;6122977;23;20002;-51
2021/12/01 02:41:52;;;;;;;1.55;0.80;;;11.60;61.80;;;;;;6115510;23;20431;-57
2021/12/01 02:44:18;;;;;;;0.90;0.75;;;11.60;61.90;;;;;;6125918;23;20002;-54
2021/12/01 02:46:45;;;;;;;1.45;0.80;;;11.60;62.00;;;;;;6116261;23;20002;-53
2021/12/01 02:49:12;;;;;;;0.90;0.80;;;11.60;62.00;;;;;;6115972;23;20001;-51
2021/12/01 02:51:39;;;;;;;1.30;1.00;;;11.60;62.10;;;;;;6115141;23;20320;-54
2021/12/01 02:54:07;;;;;;;1.48;0.90;;;11.60;62.10;;;;;;6113247;23;20017;-56
2021/12/01 02:56:34;;;;;;;1.55;1.10;;;11.50;61.90;;;;;;6115229;23;20304;-56
2021/12/01 02:59:03;;;;;;;1.42;1.10;;;11.60;61.80;;;;;;6116708;23;20009;-55
2021/12/01 03:01:30;;;;;;;1.35;0.90;;;11.50;61.70;;;;;;6115883;23;20009;-56
2021/12/01 03:03:58;;;;;;;1.90;1.10;;;11.50;61.70;;;;;;6115912;23;20002;-54
2021/12/01 03:06:25;;;;;;;1.98;1.10;;;11.50;62.40;;;;;;6115050;23;20002;-54
2021/12/01 03:08:51;;;;;;;1.00;0.90;;;11.50;61.70;;;;;;6114426;23;19998;-57
2021/12/01 03:11:17;;;;;;;3.55;1.38;;;11.50;61.70;;;;;;6116865;23;19998;-53
2021/12/01 03:13:44;;;;;;;1.52;1.08;;;11.50;61.70;;;;;;6116085;23;20355;-52
2021/12/01 03:16:11;;;;;;;1.63;1.23;;;11.50;61.80;;;;;;6116766;23;20013;-54
2021/12/01 03:18:37;;;;;;;1.35;0.95;;;11.50;61.70;;;;;;6114955;23;20022;-56
2021/12/01 03:21:03;;;;;;;1.58;1.08;;;11.50;61.70;;;;;;6115705;23;20006;-52
2021/12/01 03:23:30;;;;;;;1.10;1.00;;;11.50;61.50;;;;;;6114442;23;20005;-55
2021/12/01 03:25:56;;;;;;;1.30;1.00;;;11.50;61.40;;;;;;6116016;23;20220;-53
2021/12/01 03:28:22;;;;;;;1.10;1.00;;;11.50;61.30;;;;;;6115346;23;20002;-53
2021/12/01 03:30:49;;;;;;;1.42;0.90;;;11.40;61.10;;;;;;6116654;23;20014;-53
2021/12/01 03:33:18;;;;;;;1.17;1.00;;;11.50;61.10;;;;;;6115994;23;20014;-54
2021/12/01 03:35:47;;;;;;;1.55;1.10;;;11.50;61.10;;;;;;6116184;23;20585;-54
2021/12/01 03:38:15;;;;;;;1.00;0.82;;;11.40;61.00;;;;;;6114969;23;20002;-51
2021/12/01 03:40:42;;;;;;;1.67;1.00;;;11.40;60.90;;;;;;6116238;23;20013;-55
2021/12/01 03:43:08;;;;;;;2.65;0.90;;;11.40;60.60;;;;;;6115705;23;20008;-53
2021/12/01 03:45:34;;;;;;;2.15;1.20;;;11.40;60.60;;;;;;6116080;23;20008;-57
2021/12/01 03:48:00;;;;;;;1.55;1.08;;;11.40;60.70;;;;;;6115682;23;20013;-55
2021/12/01 03:50:27;;;;;;;2.08;1.40;;;11.40;60.60;;;;;;6116706;23;19998;-51
2021/12/01 03:52:53;;;;;;;1.58;0.93;;;11.40;60.60;;;;;;6114281;23;20021;-55
2021/12/01 03:55:19;;;;;;;1.80;1.40;;;11.40;60.60;;;;;;6116313;23;20335;-54
2021/12/01 03:57:46;;;;;;;2.78;1.90;;;11.40;60.60;;;;;;6116601;23;20010;-54
2021/12/01 04:00:15;;;;;;;5.95;1.40;;;11.40;60.40;;;;;;6113661;23;20002;-55
2021/12/01 04:02:42;;;;;;;2.13;1.40;;;11.40;60.40;;;;;;6115521;23;20336;-57
2021/12/01 04:05:10;;;;;;;2.00;1.48;;;11.40;60.20;;;;;;6115121;23;20301;-59
2021/12/01 04:07:37;;;;;;;2.25;1.65;;;11.40;60.30;;;;;;6112276;23;20009;-57
2021/12/01 04:10:06;;;;;;;3.00;1.90;;;11.30;59.90;;;;;;6115623;23;20002;-53
2021/12/01 04:12:33;;;;;;;3.50;2.10;;;11.30;59.90;;;;;;6114496;23;20033;-56
2021/12/01 04:14:59;;;;;;;3.33;2.30;;;11.30;60.00;;;;;;6115401;23;20001;-57
2021/12/01 04:17:26;;;;;;;3.30;2.30;;;11.30;60.00;;;;;;6115278;23;20005;-57
2021/12/01 04:19:52;;;;;;;3.08;2.25;;;11.30;59.90;;;;;;6115620;23;20040;-57
2021/12/01 04:22:19;;;;;;;4.00;2.30;;;11.30;59.80;;;;;;6111808;23;20002;-58
2021/12/01 04:24:45;;;;;;;6.03;2.33;;;11.30;60.00;;;;;;6113498;23;20021;-55
2021/12/01 04:27:12;;;;;;;4.63;2.50;;;11.30;60.00;;;;;;6114996;23;20017;-55
2021/12/01 04:29:39;;;;;;;3.92;2.60;;;11.30;59.90;;;;;;6115872;23;20318;-55
2021/12/01 04:32:08;;;;;;;10.30;2.80;;;11.30;59.90;;;;;;6115267;23;20795;-56
2021/12/01 04:34:35;;;;;;;4.88;2.80;;;11.30;59.80;;;;;;6115177;23;20006;-54
2021/12/01 04:37:03;;;;;;;3.97;2.70;;;11.30;59.80;;;;;;6111635;23;20006;-58
2021/12/01 04:39:29;;;;;;;5.43;3.20;;;11.30;59.70;;;;;;6114932;23;20442;-59
2021/12/01 04:41:57;;;;;;;5.03;2.88;;;11.30;59.70;;;;;;6113181;23;20014;-58
2021/12/01 04:44:25;;;;;;;5.50;3.13;;;11.30;59.80;;;;;;6115261;23;20443;-58
2021/12/01 04:46:56;;;;;;;4.55;2.53;;;11.30;59.80;;;;;;6114609;23;20005;-56
2021/12/01 04:49:24;;;;;;;4.38;2.67;;;11.30;59.80;;;;;;6115805;23;20006;-59
2021/12/01 04:51:56;;;;;;;3.88;2.88;;;11.30;59.70;;;;;;6112400;23;20002;-57
2021/12/01 04:54:24;;;;;;;5.32;3.08;;;11.20;59.70;;;;;;6112867;23;20017;-57
2021/12/01 04:56:52;;;;;;;5.32;3.03;;;11.20;59.70;;;;;;6114335;23;20335;-57
2021/12/01 04:59:19;;;;;;;4.50;2.97;;;11.20;59.60;;;;;;6115209;23;20010;-57
2021/12/01 05:01:45;;;;;;;5.28;2.90;;;11.20;59.70;;;;;;6115084;23;20013;-57
2021/12/01 05:04:12;;;;;;;4.18;2.72;;;11.20;59.70;;;;;;6113218;23;20013;-54
2021/12/01 05:06:39;;;;;;;3.83;2.55;;;11.20;59.70;;;;;;6113699;23;20347;-54
2021/12/01 05:09:07;;;;;;;5.85;2.97;;;11.20;59.80;;;;;;6112957;23;20265;-57
2021/12/01 05:11:34;;;;;;;5.45;2.63;;;11.20;59.70;;;;;;6115420;23;20006;-53
2021/12/01 05:14:00;;;;;;;5.88;2.55;;;11.20;59.60;;;;;;6111027;23;20009;-55
2021/12/01 05:16:26;;;;;;;4.15;2.17;;;11.20;59.70;;;;;;6110308;23;20002;-57
2021/12/01 05:18:53;;;;;;;4.35;2.38;;;11.20;59.70;;;;;;6111671;23;20018;-58
2021/12/01 05:21:19;;;;;;;3.45;2.40;;;11.20;59.50;;;;;;6112862;23;20016;-55
2021/12/01 05:23:46;;;;;;;2.60;1.80;;;11.20;59.60;;;;;;6114529;23;20432;-55
2021/12/01 05:26:12;;;;;;;2.63;1.90;;;11.20;59.70;;;;;;6115160;23;20009;-54
2021/12/01 05:28:40;;;;;;;2.90;1.75;;;11.20;59.60;;;;;;6112096;23;20006;-53
2021/12/01 05:31:07;;;;;;;3.10;2.00;;;11.20;59.70;;;;;;6113083;23;20002;-53
2021/12/01 05:33:34;;;;;;;3.92;1.83;;;11.20;59.60;;;;;;6114307;23;20169;-54
2021/12/01 05:36:01;;;;;;;2.05;1.52;;;11.20;59.60;;;;;;6112547;23;20006;-58
2021/12/01 05:38:27;;;;;;;2.47;1.73;;;11.20;59.40;;;;;;6113381;23;20029;-58
2021/12/01 05:40:53;;;;;;;5.00;1.52;;;11.20;59.40;;;;;;6114542;23;20442;-59
2021/12/01 05:43:20;;;;;;;2.85;1.33;;;11.20;59.20;;;;;;6114629;23;20006;-59
2021/12/01 05:45:47;;;;;;;2.78;1.33;;;11.20;59.20;;;;;;6115143;23;20295;-59
2021/12/01 05:48:14;;;;;;;1.52;1.27;;;11.20;59.30;;;;;;6115017;23;20272;-59
2021/12/01 05:50:40;;;;;;;4.75;1.55;;;11.20;59.80;;;;;;6115648;23;19994;-55
2021/12/01 05:53:07;;;;;;;4.30;1.40;;;11.20;59.30;;;;;;6115548;23;20004;-58
2021/12/01 05:55:33;;;;;;;1.92;1.30;;;11.20;59.30;;;;;;6116544;23;19994;-58
2021/12/01 05:58:00;;;;;;;3.35;1.17;;;11.20;59.30;;;;;;6116882;23;20347;-55
2021/12/01 06:00:26;;;;;;;2.40;1.23;;;11.20;59.30;;;;;;6117428;23;20412;-56
2021/12/01 06:02:52;;;;;;;1.30;0.90;;;11.20;59.30;;;;;;6117172;23;19994;-56
2021/12/01 06:05:20;;;;;;;1.80;0.77;;;11.20;59.30;;;;;;6117168;23;20423;-59
2021/12/01 06:07:48;;;;;;;2.25;0.95;;;11.20;59.20;;;;;;6115374;23;20011;-57
2021/12/01 06:10:15;;;;;;;2.05;1.20;;;11.20;59.10;;;;;;6116117;23;20001;-54
2021/12/01 06:12:42;;;;;;;1.20;1.00;;;11.20;59.10;;;;;;6115233;23;19998;-58
2021/12/01 06:15:10;;;;;;;1.25;0.80;;;11.20;59.10;;;;;;6116682;23;20157;-59
2021/12/01 06:17:37;;;;;;;1.30;0.98;;;11.20;59.00;;;;;;6115741;23;20002;-57
2021/12/01 06:20:04;;;;;;;2.30;1.15;;;11.20;59.00;;;;;;6114375;23;20014;-57
2021/12/01 06:22:31;;;;;;;0.80;0.70;;;11.20;59.10;;;;;;6114538;23;20455;-57
2021/12/01 06:24:57;;;;;;;1.30;0.85;;;11.20;59.00;;;;;;6138158;23;20443;-57
2021/12/01 06:27:25;;;;;;;2.10;1.00;;;11.20;59.00;;;;;;6114619;23;20006;-57
2021/12/01 06:29:53;;;;;;;2.03;0.80;;;11.20;59.00;;;;;;6122486;23;20021;-56
2021/12/01 06:32:19;;;;;;;2.05;0.88;;;11.20;59.00;;;;;;6113547;23;20017;-56
2021/12/01 06:34:46;;;;;;;1.15;0.90;;;11.20;59.00;;;;;;6114549;23;20002;-55
2021/12/01 06:37:12;;;;;;;1.95;0.65;;;11.20;59.00;;;;;;6113351;23;20005;-58
2021/12/01 06:39:39;;;;;;;0.88;0.80;;;11.20;59.00;;;;;;6116076;23;20343;-55
2021/12/01 06:42:05;;;;;;;1.67;0.90;;;11.20;59.00;;;;;;6116470;23;20006;-54
2021/12/01 06:44:33;;;;;;;1.38;0.73;;;11.30;59.00;;;;;;6116007;23;20446;-55
2021/12/01 06:47:02;;;;;;;1.13;0.75;;;11.30;59.00;;;;;;6115052;23;20010;-55
2021/12/01 06:49:28;;;;;;;1.20;0.85;;;11.30;59.00;;;;;;6115808;23;20006;-58
2021/12/01 06:51:54;;;;;;;1.63;0.98;;;11.30;58.80;;;;;;6112419;23;20013;-56
2021/12/01 06:54:21;;;;;;;1.80;0.60;;;11.30;58.80;;;;;;6111335;23;20009;-57
2021/12/01 06:56:47;;;;;;;1.00;0.60;;;11.30;58.80;;;;;;6115272;23;20009;-56
2021/12/01 06:59:14;;;;;;;2.40;0.90;;;11.30;58.80;;;;;;6114347;23;19994;-57
2021/12/01 07:01:40;;;;;;;3.22;1.00;;;11.30;58.80;;;;;;6113878;23;20297;-56
2021/12/01 07:04:06;;;;;;;1.33;0.80;;;11.40;58.90;;;;;;6115866;23;20006;-56
2021/12/01 07:06:33;;;;;;;2.95;0.80;;;11.40;58.90;;;;;;6112266;23;20002;-54
2021/12/01 07:09:00;;;;;;;1.17;0.70;;;11.40;58.70;;;;;;6116275;23;20005;-56
2021/12/01 07:11:29;;;;;;;2.08;0.60;;;11.40;58.80;;;;;;6115889;23;20006;-57
2021/12/01 07:13:56;;;;;;;2.67;0.70;;;11.40;58.70;;;;;;6112530;23;20407;-58
2021/12/01 07:16:23;;;;;;;1.80;0.70;;;11.40;58.70;;;;;;6114007;23;20001;-56
2021/12/01 07:18:49;;;;;;;1.45;0.70;;;11.40;58.70;;;;;;6115493;23;20021;-55
2021/12/01 07:21:15;;;;;;;1.52;0.63;;;11.40;58.60;;;;;;6114699;23;20009;-58
2021/12/01 07:23:41;;;;;;;1.67;0.57;;;11.40;58.60;;;;;;6113239;23;20534;-55
2021/12/01 07:26:08;;;;;;;0.90;0.55;;;11.40;58.70;;;;;;6114098;23;20002;-56
2021/12/01 07:28:34;;;;;;;0.50;0.50;;;11.40;58.70;;;;;;6114124;23;20327;-55
2021/12/01 07:31:01;;;;;;;1.42;0.65;;;11.40;58.70;;;;;;6114230;23;20009;-57
2021/12/01 07:33:27;;;;;;;0.70;0.50;;;11.40;58.40;;;;;;6115714;23;20005;-58
2021/12/01 07:35:53;;;;;;;1.27;0.70;;;11.40;58.40;;;;;;6115402;23;20021;-56
2021/12/01 07:38:20;;;;;;;0.55;0.47;;;11.40;58.40;;;;;;6114813;23;20006;-57
2021/12/01 07:40:46;;;;;;;1.17;0.70;;;11.40;58.40;;;;;;6115807;23;20017;-59
2021/12/01 07:43:12;;;;;;;1.48;0.70;;;11.40;58.30;;;;;;6115739;23;20010;-56
2021/12/01 07:45:43;;;;;;;0.70;0.50;;;11.50;58.40;;;;;;6115240;23;20002;-56
2021/12/01 07:48:10;;;;;;;2.53;0.40;;;11.50;58.40;;;;;;6114954;23;20017;-57
2021/12/01 07:50:36;;;;;;;1.23;0.60;;;11.50;58.90;;;;;;6115190;23;20537;-56
2021/12/01 07:53:03;;;;;;;0.45;0.40;;;11.50;58.50;;;;;;6115273;23;20283;-54
2021/12/01 07:55:29;;;;;;;0.85;0.40;;;11.50;58.30;;;;;;6114558;23;20005;-54
2021/12/01 07:57:55;;;;;;;1.20;0.40;;;11.50;58.30;;;;;;6114792;23;20010;-57
2021/12/01 08:00:22;;;;;;;0.50;0.40;;;11.50;58.30;;;;;;6115910;23;20014;-56
2021/12/01 08:02:48;;;;;;;0.30;0.20;;;11.50;58.20;;;;;;6115636;23;20001;-56
2021/12/01 08:05:15;;;;;;;0.80;0.40;;;11.50;58.20;;;;;;6115196;23;20002;-59
2021/12/01 08:07:41;;;;;;;0.82;0.25;;;11.60;58.20;;;;;;6113766;23;20462;-56
2021/12/01 08:10:10;;;;;;;1.42;0.30;;;11.60;58.30;;;;;;6115838;23;20453;-56
2021/12/01 08:12:38;;;;;;;0.95;0.30;;;11.60;58.10;;;;;;6114907;23;20014;-55
2021/12/01 08:15:06;;;;;;;0.55;0.30;;;11.60;58.20;;;;;;6115661;23;20212;-57
2021/12/01 08:17:32;;;;;;;0.60;0.30;;;11.60;58.10;;;;;;6113385;23;20010;-56
2021/12/01 08:19:59;;;;;;;1.50;0.40;;;11.60;58.10;;;;;;6115809;23;20379;-54
2021/12/01 08:22:28;;;;;;;1.95;0.30;;;11.60;58.00;;;;;;6112290;23;20065;-58
2021/12/01 08:24:57;;;;;;;0.40;0.20;;;11.70;57.90;;;;;;6115481;23;20005;-55
2021/12/01 08:27:25;;;;;;;0.73;0.20;;;11.70;57.80;;;;;;6114328;23;20022;-56
2021/12/01 08:29:52;;;;;;;1.45;0.73;;;11.70;57.90;;;;;;6115075;23;20033;-57
2021/12/01 08:32:19;;;;;;;0.30;0.10;;;11.70;57.90;;;;;;6115433;23;20010;-56
2021/12/01 08:34:51;;;;;;;1.92;0.20;;;11.70;57.90;;;;;;6114977;23;20049;-58
2021/12/01 08:37:19;;;;;;;0.10;0.10;;;11.80;57.90;;;;;;6123062;23;20001;-55
2021/12/01 08:39:49;;;;;;;0.22;0.10;;;11.80;57.80;;;;;;6113900;23;20010;-59
2021/12/01 08:42:18;;;;;;;0.20;0.13;;;11.80;57.70;;;;;;6115185;23;20006;-57
2021/12/01 08:44:47;;;;;;;0.43;0.28;;;11.80;57.70;;;;;;6114140;23;20331;-57
2021/12/01 08:47:20;;;;;;;0.25;0.20;;;11.90;57.70;;;;;;6113069;23;20010;-57
2021/12/01 08:49:46;;;;;;;0.20;0.10;;;11.90;57.70;;;;;;6113867;23;20002;-55
2021/12/01 08:52:13;;;;;;;0.22;0.20;;;11.90;57.80;;;;;;6113920;23;20196;-54
2021/12/01 08:54:39;;;;;;;0.22;0.10;;;11.90;57.80;;;;;;6114863;23;20002;-53
2021/12/01 08:57:06;;;;;;;0.30;0.30;;;11.90;57.70;;;;;;6115672;23;20050;-60
2021/12/01 08:59:33;;;;;;;0.20;0.10;;;11.90;57.70;;;;;;6115479;23;20013;-60
2021/12/01 09:02:01;;;;;;;1.25;0.22;;;12.00;57.80;;;;;;6113578;23;20424;-57
2021/12/01 09:04:28;;;;;;;1.30;0.28;;;12.00;57.70;;;;;;6112790;23;20017;-59
2021/12/01 09:06:55;;;;;;;0.22;0.20;;;11.90;57.70;;;;;;6113261;23;20006;-58
2021/12/01 09:09:21;;;;;;;0.20;0.20;;;12.00;57.80;;;;;;6114851;23;20009;-57
2021/12/01 09:11:50;;;;;;;0.20;0.10;;;12.00;57.80;;;;;;6115208;23;20612;-54
2021/12/01 09:14:17;;;;;;;0.20;0.10;;;12.00;57.70;;;;;;6112188;23;20005;-58
2021/12/01 09:16:46;;;;;;;1.00;0.30;;;12.00;57.70;;;;;;6114637;23;20005;-59
2021/12/01 09:19:13;;;;;;;0.43;0.10;;;12.10;57.70;;;;;;6113171;23;20021;-56
2021/12/01 09:21:40;;;;;;;0.28;0.08;;;12.10;57.70;;;;;;6113793;23;20010;-58
2021/12/01 09:24:07;;;;;;;0.20;0.10;;;12.10;57.80;;;;;;6111127;23;20020;-56
2021/12/01 09:26:33;;;;;;;0.25;0.10;;;12.10;57.70;;;;;;6113464;23;20013;-53
2021/12/01 09:28:59;;;;;;;1.10;0.22;;;12.20;57.70;;;;;;6113036;23;20009;-55
2021/12/01 09:31:26;;;;;;;1.98;0.00;;;12.20;57.70;;;;;;6113679;23;20002;-55
2021/12/01 09:33:52;;;;;;;0.15;0.00;;;12.20;57.70;;;;;;6114843;23;20009;-55
2021/12/01 09:36:19;;;;;;;0.10;0.10;;;12.20;57.60;;;;;;6113151;23;20013;-54
2021/12/01 09:38:45;;;;;;;1.92;0.20;;;12.30;57.60;;;;;;6114411;23;20005;-55
2021/12/01 09:41:11;;;;;;;0.52;0.30;;;12.30;57.60;;;;;;6114966;23;20005;-57
2021/12/01 09:43:38;;;;;;;0.28;0.20;;;12.30;57.60;;;;;;6114626;23;20435;-55
2021/12/01 09:46:08;;;;;;;0.10;0.10;;;12.30;57.60;;;;;;6115031;23;20404;-56
2021/12/01 09:48:35;;;;;;;0.63;0.20;;;12.30;57.40;;;;;;6114631;23;20017;-58
2021/12/01 09:51:01;;;;;;;0.13;0.10;;;12.30;57.30;;;;;;6112616;23;20276;-57
2021/12/01 09:53:28;;;;;;;0.20;0.10;;;12.30;57.40;;;;;;6114143;23;20022;-58
2021/12/01 09:55:54;;;;;;;0.10;0.10;;;12.30;57.40;;;;;;6115264;23;20002;-59
2021/12/01 09:58:24;;;;;;;0.10;0.10;;;12.30;57.40;;;;;;6114449;23;20309;-55
2021/12/01 10:00:55;;;;;;;0.15;0.10;;;12.30;57.40;;;;;;6114957;23;20018;-57
2021/12/01 10:03:23;;;;;;;0.20;0.10;;;12.40;57.40;;;;;;6112226;23;19998;-54
2021/12/01 10:06:02;;;;;;;0.10;0.10;;;12.30;57.40;;;;;;6108650;23;19994;-59
2021/12/01 10:08:35;;;;;;;2.00;0.10;;;12.40;57.50;;;;;;6134112;23;20013;-59
2021/12/01 10:11:30;;;;;;;1.75;0.10;;;12.40;57.50;;;;;;6113596;23;20316;-54
2021/12/01 10:14:00;;;;;;;0.15;0.05;;;12.40;57.30;;;;;;6107079;23;20022;-58
2021/12/01 10:16:37;;;;;;;1.35;0.00;;;12.40;57.40;;;;;;6113154;23;20003;-59
2021/12/01 10:19:10;;;;;;;0.28;0.10;;;12.50;57.40;;;;;;6117346;23;20443;-56
2021/12/01 10:21:37;;;;;;;0.10;0.10;;;12.50;57.60;;;;;;6123066;23;20013;-60
2021/12/01 10:24:08;;;;;;;0.13;0.10;;;12.50;58.00;;;;;;6114901;23;20028;-54
2021/12/01 10:26:42;;;;;;;0.00;0.00;;;12.50;57.50;;;;;;6114799;23;20002;-58
2021/12/01 10:29:15;;;;;;;1.42;0.10;;;12.50;57.40;;;;;;6123922;23;20009;-58
2021/12/01 10:31:46;;;;;;;0.10;0.10;;;12.60;57.40;;;;;;6124614;23;19994;-59
2021/12/01 10:34:23;;;;;;;0.17;0.00;;;12.60;57.20;;;;;;6123632;23;20436;-59
2021/12/01 10:37:09;;;;;;;0.10;0.00;;;12.60;57.00;;;;;;6114397;23;20010;-59
2021/12/01 10:39:37;;;;;;;0.52;0.10;;;12.60;57.00;;;;;;6115555;23;20006;-59
2021/12/01 10:42:09;;;;;;;1.77;0.00;;;12.60;57.00;;;;;;6117215;23;20328;-57
2021/12/01 10:44:36;;;;;;;0.98;0.20;;;12.60;57.10;;;;;;6125953;23;20012;-57
2021/12/01 10:47:11;;;;;;;6.43;0.08;;;12.70;57.30;;;;;;6115729;23;20002;-55
2021/12/01 10:49:43;;;;;;;0.00;0.00;;;12.70;57.10;;;;;;6113537;23;20364;-54
2021/12/01 10:52:30;;;;;;;1.08;0.20;;;12.70;57.00;;;;;;6112064;23;20005;-56
2021/12/01 10:55:13;;;;;;;0.00;0.00;;;12.70;57.00;;;;;;6113654;23;20063;-56
2021/12/01 10:57:42;;;;;;;0.20;0.10;;;12.80;57.20;;;;;;6115355;23;19998;-59
2021/12/01 11:00:18;;;;;;;0.45;0.10;;;12.80;57.30;;;;;;6113324;23;20002;-56
2021/12/01 11:02:45;;;;;;;2.38;0.10;;;12.80;57.10;;;;;;6111145;23;20372;-56
2021/12/01 11:05:31;;;;;;;0.47;0.00;;;12.90;57.10;;;;;;6111924;23;20052;-56
2021/12/01 11:08:09;;;;;;;0.28;0.00;;;12.90;56.90;;;;;;6120445;23;20017;-57
2021/12/01 11:10:36;;;;;;;0.30;0.10;;;12.90;56.80;;;;;;6113012;23;20002;-55
2021/12/01 11:13:03;;;;;;;2.58;0.10;;;13.00;57.00;;;;;;6114500;23;19998;-54
2021/12/01 11:15:39;;;;;;;0.17;0.08;;;13.00;57.00;;;;;;6107928;23;20009;-56
2021/12/01 11:18:07;;;;;;;0.20;0.00;;;13.00;56.70;;;;;;6109413;23;20140;-57
2021/12/01 11:20:38;;;;;;;0.63;0.20;;;13.00;56.70;;;;;;6113299;23;20492;-55
2021/12/01 11:23:26;;;;;;;0.00;0.00;;;13.00;56.80;;;;;;6114007;23;20005;-56
2021/12/01 11:25:56;;;;;;;0.20;0.20;;;13.10;56.70;;;;;;6104759;23;20002;-57
2021/12/01 11:28:25;;;;;;;0.10;0.10;;;13.10;56.80;;;;;;6112618;23;20310;-55
2021/12/01 11:30:57;;;;;;;0.10;0.10;;;13.10;57.00;;;;;;6110441;23;20002;-54
2021/12/01 11:33:26;;;;;;;0.20;0.00;;;13.20;57.00;;;;;;6120837;23;20002;-56
2021/12/01 11:36:05;;;;;;;0.10;0.10;;;13.20;56.90;;;;;;6112049;23;19998;-58
2021/12/01 11:38:32;;;;;;;0.20;0.10;;;13.20;56.60;;;;;;6123132;23;20002;-57
2021/12/01 11:40:59;;;;;;;0.30;0.10;;;13.30;56.80;;;;;;6114669;23;20010;-56
2021/12/01 11:43:29;;;;;;;0.10;0.10;;;13.20;56.40;;;;;;6114857;23;20010;-55
2021/12/01 11:45:56;;;;;;;0.10;0.10;;;13.30;56.50;;;;;;6114534;23;20002;-54
2021/12/01 11:48:38;;;;;;;1.05;0.25;;;13.30;56.60;;;;;;6112562;23;20009;-56
2021/12/01 11:51:33;;;;;;;0.20;0.20;;;13.30;56.30;;;;;;6114057;23;20010;-56
2021/12/01 11:54:08;;;;;;;;;;;13.30;56.30;;;;;;6125110;23;20009;-55
2021/12/01 11:56:39;;;;;;;1.42;0.10;;;13.30;56.60;;;;;;6115201;23;19901;-58
2021/12/01 11:59:15;;;;;;;0.95;0.70;;;13.40;56.10;;;;;;6114909;23;19994;-56
2021/12/01 12:01:45;;;;;;;0.73;0.50;;;13.30;56.20;;;;;;6111361;23;20009;-58
2021/12/01 12:04:15;;;;;;;1.08;0.20;;;13.30;56.30;;;;;;6115752;23;20017;-58
2021/12/01 12:07:05;;;;;;;0.10;0.10;;;13.30;56.40;;;;;;6114037;23;19998;-55
2021/12/01 12:09:32;;;;;;;0.13;0.08;;;13.30;56.60;;;;;;6125629;23;20009;-54
2021/12/01 12:11:59;;;;;;;0.13;0.10;;;13.30;57.00;;;;;;6115425;23;19994;-57
2021/12/01 12:14:54;;;;;;;0.63;0.17;;;13.30;57.30;;;;;;6115705;23;20005;-55
2021/12/01 12:17:35;;;;;;;0.40;0.20;;;13.20;57.40;;;;;;6114111;23;20006;-57
2021/12/01 12:20:24;;;;;;;0.43;0.25;;;13.30;57.70;;;;;;6115317;23;20025;-55
2021/12/01 12:22:50;;;;;;;0.10;0.10;;;13.20;57.80;;;;;;6124161;23;20014;-57
2021/12/01 12:25:34;;;;;;;0.10;0.03;;;13.20;57.80;;;;;;6114911;23;20006;-56
2021/12/01 12:28:26;;;;;;;0.52;0.05;;;13.20;58.00;;;;;;6114464;23;20001;-58
2021/12/01 12:30:54;;;;;;;5.28;0.20;;;13.20;58.10;;;;;;6124977;23;19998;-56
2021/12/01 12:33:22;;;;;;;1.55;0.73;;;13.20;58.30;;;;;;6115549;23;20200;-57
2021/12/01 12:35:52;;;;;;;0.50;0.20;;;13.10;58.30;;;;;;6114713;23;19998;-58
2021/12/01 12:38:19;;;;;;;0.25;0.20;;;13.10;58.50;;;;;;6114173;23;20002;-58
2021/12/01 12:40:46;;;;;;;1.80;0.50;;;13.00;58.70;;;;;;6116000;23;20017;-54
2021/12/01 12:43:23;;;;;;;0.13;0.13;;;13.00;59.00;;;;;;6112093;23;20479;-57
2021/12/01 12:46:09;;;;;;;1.30;0.13;;;13.00;59.30;;;;;;6110383;23;20446;-54
2021/12/01 12:48:50;;;;;;;1.00;0.20;;;13.00;59.40;;;;;;6121203;23;20355;-56
2021/12/01 12:51:30;;;;;;;0.30;0.20;;;13.00;59.50;;;;;;6123307;23;20006;-56
2021/12/01 12:54:00;;;;;;;0.55;0.20;;;13.00;59.60;;;;;;6124517;23;20011;-58
2021/12/01 12:56:31;;;;;;;0.10;0.10;;;13.00;59.70;;;;;;6112775;23;19998;-55
2021/12/01 12:59:19;;;;;;;0.40;0.10;;;12.90;60.60;;;;;;6109174;23;20006;-55
2021/12/01 13:01:49;;;;;;;8.20;0.28;;;12.90;60.00;;;;;;6111516;23;19998;-55